createdAt,value
2019-05-08T15:42:20.088Z,74.09
2019-05-08T15:43:33.033Z,73.9
2019-05-08T15:44:43.945Z,73.61
2019-05-08T15:45:55.531Z,73.9
2019-05-08T15:47:09.390Z,73.52
2019-05-08T15:48:20.627Z,73.71
2019-05-08T15:49:32.870Z,73.99
2019-05-08T15:50:44.896Z,73.99
2019-05-08T15:51:57.275Z,74.48
2019-05-08T15:53:07.324Z,74.48
2019-05-08T15:54:20.751Z,74.09
2019-05-08T15:55:33.001Z,74.95
2019-05-08T15:56:49.289Z,74.85
2019-05-08T15:57:59.847Z,74.95
2019-05-08T15:59:12.680Z,75.14
2019-05-08T16:00:24.315Z,75.24
2019-05-08T16:01:39.988Z,74.95
2019-05-08T16:02:53.195Z,75.24
2019-05-08T16:04:05.419Z,74.95
2019-05-08T16:05:22.104Z,74.66
2019-05-08T16:06:34.861Z,74.85
2019-05-08T16:07:45.432Z,75.34
2019-05-08T16:08:59.384Z,75.14
2019-05-08T16:10:10.102Z,75.18
2019-05-08T16:11:22.685Z,75.18
2019-05-08T16:12:33.327Z,75.18
2019-05-08T16:13:45.060Z,75.09
2019-05-08T16:14:59.166Z,75.27
2019-05-08T16:16:11.761Z,75.18
2019-05-08T16:17:23.112Z,75.27
2019-05-08T16:18:34.836Z,74.9
2019-05-08T16:19:47.112Z,74.8
2019-05-08T16:20:58.258Z,75.18
2019-05-08T16:22:09.579Z,75.18
2019-05-08T16:23:22.037Z,75.27
2019-05-08T16:24:34.716Z,75.09
2019-05-08T16:25:46.916Z,75.18
2019-05-08T16:26:59.861Z,75.18
2019-05-08T16:28:11.277Z,75.56
2019-05-08T16:29:22.547Z,75.56
2019-05-08T16:30:33.613Z,75.66
2019-05-08T16:31:46.135Z,75.66
2019-05-08T16:32:57.645Z,75.37
2019-05-08T16:34:18.701Z,76.04
2019-05-08T16:35:30.334Z,75.95
2019-05-08T16:36:48.993Z,75.66
2019-05-08T16:38:03.528Z,75.85
2019-05-08T16:39:16.197Z,76.04
2019-05-08T16:40:27.184Z,75.37
2019-05-08T16:41:39.470Z,75.56
2019-05-08T16:42:51.185Z,75.71
2019-05-08T16:44:03.299Z,75.52
2019-05-08T16:45:14.014Z,75.62
2019-05-08T16:46:26.315Z,75.71
2019-05-08T16:47:37.209Z,75.43
2019-05-08T16:48:49.500Z,75.24
2019-05-08T16:50:00.052Z,75.81
2019-05-08T16:51:14.072Z,75.91
2019-05-08T16:52:26.583Z,76.1
2019-05-08T16:53:39.030Z,75.71
2019-05-08T16:54:53.004Z,75.91
2019-05-08T16:56:05.775Z,76.1
2019-05-08T16:57:17.042Z,76.57
2019-05-08T16:58:27.296Z,76.57
2019-05-08T16:59:39.043Z,76.29
2019-05-08T17:00:53.549Z,76.2
2019-05-08T17:02:07.404Z,76.39
2019-05-08T17:03:19.492Z,76.39
2019-05-08T17:04:33.065Z,76.29
2019-05-08T17:05:45.710Z,76.29
2019-05-08T17:07:07.220Z,76.96
2019-05-08T17:08:18.767Z,76.48
2019-05-08T17:09:33.319Z,76.48
2019-05-08T17:10:46.114Z,76.39
2019-05-08T17:11:57.120Z,76.39
2019-05-08T17:13:07.337Z,76.39
2019-05-08T17:14:22.883Z,76.29
2019-05-08T17:15:33.858Z,76.2
2019-05-08T17:16:46.178Z,76.2
2019-05-08T17:17:57.069Z,76.29
2019-05-08T17:19:09.168Z,76.39
2019-05-08T17:20:21.273Z,76.48
2019-05-08T17:21:34.049Z,76.39
2019-05-08T17:22:46.058Z,76.67
2019-05-08T17:23:56.256Z,76.77
2019-05-08T17:25:06.427Z,76.67
2019-05-08T17:26:16.943Z,76.67
2019-05-08T17:27:29.904Z,76.96
2019-05-08T17:28:41.111Z,76.48
2019-05-08T17:29:53.996Z,76.67
2019-05-08T17:31:06.703Z,77.06
2019-05-08T17:32:17.631Z,76.57
2019-05-08T17:33:28.803Z,76.77
2019-05-08T17:34:39.641Z,76.39
2019-05-08T17:35:51.526Z,76.77
2019-05-08T17:37:20.876Z,77.06
2019-05-08T17:38:33.960Z,77.06
2019-05-08T17:39:46.555Z,76.86
2019-05-08T17:40:58.825Z,77.15
2019-05-08T17:42:09.671Z,77.15
2019-05-08T17:43:23.820Z,77.34
2019-05-08T17:44:36.999Z,77.25
2019-05-08T17:45:49.186Z,77.44
2019-05-08T17:47:03.733Z,77.72
2019-05-08T17:48:16.105Z,77.63
2019-05-08T17:49:26.285Z,77.72
2019-05-08T17:50:36.480Z,77.82
2019-05-08T17:51:46.649Z,77.82
2019-05-08T17:52:56.891Z,77.53
2019-05-08T17:54:09.700Z,77.53
2019-05-08T17:55:23.250Z,77.72
2019-05-08T17:56:36.340Z,77.92
2019-05-08T17:57:47.610Z,77.63
2019-05-08T17:58:59.931Z,77.82
2019-05-08T18:00:13.441Z,77.82
2019-05-08T18:01:24.226Z,77.72
2019-05-08T18:02:37.021Z,77.44
2019-05-08T18:03:49.995Z,77.44
2019-05-08T18:05:03.799Z,77.53
2019-05-08T18:06:15.863Z,77.63
2019-05-08T18:07:37.001Z,77.63
2019-05-08T18:08:49.770Z,77.63
2019-05-08T18:10:01.256Z,78.01
2019-05-08T18:11:13.528Z,77.82
2019-05-08T18:12:25.841Z,78.11
2019-05-08T18:13:37.430Z,77.63
2019-05-08T18:14:49.233Z,77.53
2019-05-08T18:16:00.985Z,77.63
2019-05-08T18:17:14.058Z,77.82
2019-05-08T18:18:26.782Z,77.92
2019-05-08T18:19:39.241Z,77.82
2019-05-08T18:20:53.863Z,77.72
2019-05-08T18:22:06.975Z,77.92
2019-05-08T18:23:18.573Z,77.92
2019-05-08T18:24:29.614Z,78.2
2019-05-08T18:25:43.572Z,78.39
2019-05-08T18:26:58.198Z,78.16
2019-05-08T18:28:13.582Z,78.2
2019-05-08T18:29:25.795Z,78.11
2019-05-08T18:30:36.828Z,78.39
2019-05-08T18:31:47.019Z,78.36
2019-05-08T18:32:57.192Z,78.83
2019-05-08T18:34:09.868Z,78.68
2019-05-08T18:35:23.500Z,78.78
2019-05-08T18:36:34.426Z,78.74
2019-05-08T18:37:55.487Z,79.02
2019-05-08T18:39:07.210Z,79.16
2019-05-08T18:40:19.253Z,79.16
2019-05-08T18:41:33.626Z,79.12
2019-05-08T18:42:46.621Z,79.02
2019-05-08T18:43:59.562Z,78.97
2019-05-08T18:45:09.810Z,79.35
2019-05-08T18:46:21.748Z,79.54
2019-05-08T18:47:36.607Z,79.5
2019-05-08T18:48:49.422Z,79.5
2019-05-08T18:50:03.623Z,80.17
2019-05-08T18:51:14.227Z,79.88
2019-05-08T18:52:26.975Z,79.69
2019-05-08T18:53:37.182Z,79.69
2019-05-08T18:54:48.232Z,79.83
2019-05-08T18:56:03.877Z,79.69
2019-05-08T18:57:16.821Z,79.69
2019-05-08T18:58:28.858Z,80.27
2019-05-08T18:59:43.036Z,79.88
2019-05-08T19:00:55.728Z,80.46
2019-05-08T19:02:07.049Z,80.27
2019-05-08T19:03:17.235Z,80.84
2019-05-08T19:04:30.295Z,80.93
2019-05-08T19:05:46.326Z,81.03
2019-05-08T19:07:18.746Z,80.84
2019-05-08T19:08:33.659Z,80.74
2019-05-08T19:09:46.206Z,80.74
2019-05-08T19:10:57.927Z,81.03
2019-05-08T19:12:13.830Z,81.03
2019-05-08T19:13:26.947Z,80.65
2019-05-08T19:14:39.816Z,81.13
2019-05-08T19:15:51.425Z,81.32
2019-05-08T19:17:04.056Z,81.32
2019-05-08T19:18:15.061Z,81.6
2019-05-08T19:19:27.611Z,81.51
2019-05-08T19:20:39.829Z,81.32
2019-05-08T19:21:54.103Z,81.51
2019-05-08T19:23:06.954Z,81.6
2019-05-08T19:24:18.889Z,81.79
2019-05-08T19:25:31.586Z,81.51
2019-05-08T19:26:45.811Z,81.99
2019-05-08T19:27:57.057Z,82.18
2019-05-08T19:29:07.973Z,82.08
2019-05-08T19:30:18.194Z,82.18
2019-05-08T19:31:28.503Z,81.89
2019-05-08T19:32:46.033Z,82.08
2019-05-08T19:33:58.381Z,82.08
2019-05-08T19:35:11.306Z,81.6
2019-05-08T19:36:23.603Z,81.99
2019-05-08T19:37:37.532Z,82.18
2019-05-08T19:38:49.222Z,82.28
2019-05-08T19:40:04.194Z,81.89
2019-05-08T19:41:17.803Z,82.56
2019-05-08T19:42:30.172Z,82.37
2019-05-08T19:43:41.605Z,81.79
2019-05-08T19:44:53.869Z,81.79
2019-05-08T19:46:07.684Z,82.37
2019-05-08T19:47:19.372Z,82.18
2019-05-08T19:48:33.193Z,82.28
2019-05-08T19:49:44.114Z,81.79
2019-05-08T19:50:57.088Z,82.46
2019-05-08T19:52:10.007Z,81.99
2019-05-08T19:53:23.887Z,81.7
2019-05-08T19:54:36.717Z,82.84
2019-05-08T19:55:49.367Z,82.08
2019-05-08T19:57:03.756Z,81.79
2019-05-08T19:58:16.751Z,82.08
2019-05-08T19:59:28.973Z,82.18
2019-05-08T20:00:43.834Z,82.84
2019-05-08T20:01:58.601Z,82.71
2019-05-08T20:03:09.535Z,82.81
2019-05-08T20:04:39.806Z,82.32
2019-05-08T20:05:51.706Z,82.42
2019-05-08T20:07:04.790Z,82.61
2019-05-08T20:08:32.362Z,82.52
2019-05-08T20:09:49.301Z,82.61
2019-05-08T20:11:03.824Z,82.81
2019-05-08T20:12:18.928Z,82.42
2019-05-08T20:13:31.370Z,82.23
2019-05-08T20:14:43.481Z,82.61
2019-05-08T20:15:54.139Z,82.42
2019-05-08T20:17:06.710Z,82.42
2019-05-08T20:18:19.130Z,82.42
2019-05-08T20:19:33.614Z,82.42
2019-05-08T20:20:46.262Z,82.61
2019-05-08T20:21:58.759Z,82.71
2019-05-08T20:23:13.816Z,82.9
2019-05-08T20:24:26.898Z,82.61
2019-05-08T20:25:39.464Z,82.61
2019-05-08T20:26:53.274Z,82.52
2019-05-08T20:28:03.803Z,82.61
2019-05-08T20:29:16.259Z,82.71
2019-05-08T20:30:28.497Z,82.81
2019-05-08T20:31:39.236Z,82.61
2019-05-08T20:32:53.400Z,82.52
2019-05-08T20:34:05.869Z,82.32
2019-05-08T20:35:37.826Z,82.61
2019-05-08T20:36:48.032Z,82.81
2019-05-08T20:37:59.887Z,82.9
2019-05-08T20:39:13.126Z,82.71
2019-05-08T20:40:23.995Z,82.81
2019-05-08T20:41:36.734Z,82.81
2019-05-08T20:42:48.660Z,83.28
2019-05-08T20:44:03.485Z,82.9
2019-05-08T20:45:14.237Z,82.9
2019-05-08T20:46:26.302Z,82.81
2019-05-08T20:47:37.106Z,83.28
2019-05-08T20:48:49.603Z,83.76
2019-05-08T20:50:01.267Z,83.67
2019-05-08T20:51:13.517Z,83.76
2019-05-08T20:52:25.860Z,83.67
2019-05-08T20:53:39.273Z,83.76
2019-05-08T20:54:53.720Z,84.43
2019-05-08T20:56:06.663Z,84.14
2019-05-08T20:57:19.013Z,84.23
2019-05-08T20:58:30.774Z,84.33
2019-05-08T20:59:43.774Z,84.05
2019-05-08T21:00:54.308Z,84.62
2019-05-08T21:02:06.958Z,84.91
2019-05-08T21:03:19.108Z,84.72
2019-05-08T21:04:33.442Z,84.62
2019-05-08T21:05:45.718Z,84.86
2019-05-08T21:06:56.928Z,85.38
2019-05-08T21:08:09.151Z,85.48
2019-05-08T21:09:21.120Z,85.34
2019-05-08T21:10:33.770Z,85.72
2019-05-08T21:11:45.879Z,86.01
2019-05-08T21:12:56.046Z,85.82
2019-05-08T21:14:06.184Z,85.72
2019-05-08T21:15:17.109Z,85.91
2019-05-08T21:16:27.255Z,85.82
2019-05-08T21:17:39.653Z,86.01
2019-05-08T21:18:52.945Z,86.2
2019-05-08T21:20:05.937Z,86.39
2019-05-08T21:21:16.540Z,86.77
2019-05-08T21:22:27.324Z,86.49
2019-05-08T21:23:39.202Z,86.39
2019-05-08T21:24:49.827Z,86.77
2019-05-08T21:26:06.753Z,86.68
2019-05-08T21:27:16.905Z,87.35
2019-05-08T21:28:30.080Z,87.25
2019-05-08T21:29:41.309Z,87.35
2019-05-08T21:30:51.895Z,87.06
2019-05-08T21:32:04.387Z,86.96
2019-05-08T21:33:16.738Z,87.15
2019-05-08T21:34:29.595Z,87.54
2019-05-08T21:35:43.569Z,87.25
2019-05-08T21:36:56.133Z,87.15
2019-05-08T21:38:07.064Z,87.25
2019-05-08T21:39:27.642Z,87.54
2019-05-08T21:40:39.910Z,86.96
2019-05-08T21:41:52.112Z,87.44
2019-05-08T21:43:06.333Z,87.35
2019-05-08T21:44:18.777Z,87.35
2019-05-08T21:45:34.082Z,87.35
2019-05-08T21:46:46.583Z,87.35
2019-05-08T21:47:59.212Z,87.54
2019-05-08T21:49:13.261Z,87.54
2019-05-08T21:50:24.225Z,87.54
2019-05-08T21:51:36.148Z,87.35
2019-05-08T21:52:46.943Z,87.25
2019-05-08T21:53:59.122Z,87.63
2019-05-08T21:55:13.817Z,87.44
2019-05-08T21:56:26.433Z,87.35
2019-05-08T21:57:36.787Z,86.87
2019-05-08T21:58:49.243Z,87.73
2019-05-08T22:00:07.070Z,87.63
2019-05-08T22:01:17.187Z,87.54
2019-05-08T22:02:29.398Z,87.54
2019-05-08T22:03:43.237Z,87.44
2019-05-08T22:04:54.164Z,87.63
2019-05-08T22:06:06.084Z,87.44
2019-05-08T22:07:16.896Z,87.82
2019-05-08T22:08:28.493Z,87.73
2019-05-08T22:09:45.565Z,87.54
2019-05-08T22:10:59.698Z,88.01
2019-05-08T22:12:13.905Z,87.73
2019-05-08T22:13:26.006Z,87.92
2019-05-08T22:14:37.022Z,88.01
2019-05-08T22:15:48.067Z,88.01
2019-05-08T22:16:58.650Z,88.3
2019-05-08T22:18:09.121Z,88.2
2019-05-08T22:19:19.884Z,88.3
2019-05-08T22:20:31.182Z,88.11
2019-05-08T22:21:43.907Z,88.68
2019-05-08T22:22:55.596Z,88.87
2019-05-08T22:24:06.530Z,88.49
2019-05-08T22:25:19.383Z,88.78
2019-05-08T22:26:34.025Z,88.4
2019-05-08T22:27:46.567Z,88.68
2019-05-08T22:28:57.236Z,88.78
2019-05-08T22:30:08.702Z,88.59
2019-05-08T22:31:19.273Z,88.49
2019-05-08T22:32:33.523Z,88.68
2019-05-08T22:33:45.872Z,89.35
2019-05-08T22:34:56.555Z,88.97
2019-05-08T22:36:07.342Z,89.73
2019-05-08T22:37:19.091Z,89.45
2019-05-08T22:38:32.899Z,89.25
2019-05-08T22:39:56.711Z,89.35
2019-05-08T22:41:06.999Z,89.35
2019-05-08T22:42:18.650Z,89.64
2019-05-08T22:43:35.926Z,89.83
2019-05-08T22:44:46.628Z,89.73
2019-05-08T22:46:05.294Z,89.73
2019-05-08T22:47:16.492Z,90.21
2019-05-08T22:48:26.604Z,89.92
2019-05-08T22:49:36.943Z,90.02
2019-05-08T22:50:48.987Z,89.92
2019-05-08T22:52:01.061Z,90.4
2019-05-08T22:53:11.559Z,90.4
2019-05-08T22:54:23.137Z,90.4
2019-05-08T22:55:33.730Z,90.78
2019-05-08T22:56:45.862Z,90.69
2019-05-08T22:57:56.582Z,90.59
2019-05-08T22:59:11.122Z,90.4
2019-05-08T23:00:23.590Z,90.59
2019-05-08T23:01:34.498Z,90.69
2019-05-08T23:02:46.426Z,90.4
2019-05-08T23:03:56.886Z,90.4
2019-05-08T23:05:09.124Z,90.69
2019-05-08T23:06:19.829Z,90.88
2019-05-08T23:07:33.347Z,90.88
2019-05-08T23:08:44.330Z,91.12
2019-05-08T23:10:12.181Z,91.55
2019-05-08T23:11:25.819Z,91.21
2019-05-08T23:12:36.127Z,91.41
2019-05-08T23:13:49.651Z,92.17
2019-05-08T23:14:59.765Z,91.98
2019-05-08T23:16:09.878Z,92.17
2019-05-08T23:17:23.735Z,92.17
2019-05-08T23:18:36.103Z,92.07
2019-05-08T23:19:47.264Z,92.07
2019-05-08T23:20:59.103Z,92.07
2019-05-08T23:22:13.619Z,92.74
2019-05-08T23:23:23.978Z,92.36
2019-05-08T23:24:36.596Z,93.41
2019-05-08T23:25:49.851Z,93.41
2019-05-08T23:27:04.208Z,93.6
2019-05-08T23:28:19.024Z,93.79
2019-05-08T23:29:33.908Z,93.12
2019-05-08T23:30:48.734Z,93.79
2019-05-08T23:31:59.905Z,94.27
2019-05-08T23:33:11.631Z,94.07
2019-05-08T23:34:25.622Z,93.88
2019-05-08T23:35:36.323Z,94.27
2019-05-08T23:36:49.167Z,94.46
2019-05-08T23:37:59.302Z,94.46
2019-05-08T23:39:11.241Z,94.56
2019-05-08T23:40:24.902Z,94.46
2019-05-08T23:41:36.548Z,95.03
2019-05-08T23:42:48.823Z,94.93
2019-05-08T23:44:03.629Z,95.22
2019-05-08T23:45:16.712Z,95.22
2019-05-08T23:46:28.610Z,95.03
2019-05-08T23:47:39.554Z,94.93
2019-05-08T23:48:51.256Z,95.12
2019-05-08T23:50:04.082Z,95.41
2019-05-08T23:51:16.570Z,95.61
2019-05-08T23:52:26.699Z,95.12
2019-05-08T23:53:36.813Z,95.61
2019-05-08T23:54:48.737Z,96.17
2019-05-08T23:55:59.304Z,95.98
2019-05-08T23:57:13.398Z,96.17
2019-05-08T23:58:25.870Z,97.03
2019-05-08T23:59:36.852Z,96.98
